Aspen, Colorado
Current Conditions -  °F | °C
As of 9:53 AM on Sunday 23 Nov 2014 (Local Time) from KASE Reporting Station
Overcast Overcast  
Wind Chill: 18°   Ceiling: 3700
Heat Index: 26°   Visibility: 10mi
Dew Point: 19°   Wind: 8mph
Humidity: 75%   Direction: 10°N
Pressure: 29.87"   Gusts: NA
Location:  39.19°N, 106.81°W
Report Text: KASE 231653Z 01007KT 10SM BKN037 OVC044 M03/M07 A2987 RMK AO2 SNE11 SLP098 P0000 T10331072
Loading
Personal Weather Stations






























Interactive Weather Map New forecast layout! Learn more

10-Day Weather Forecast

Advertisements
Track Severe Weather on mobile